LESA/SLM METAR and TAF weather

Enter ICAO airport designator
Station Type Date Time Source
LESA METAR 2019/06/18 14:30 UTC NOAA

LESA 181430Z 25017KT 210V280 CAVOK 23/09 Q1015


Station Type Date Time Source
LESA Decoded METAR 2019/06/18 14:30 UTC NOAA

Salamanca / Matacan, Spain (LESA) 40-57N 005-30W 795M
Jun 18, 2019 - 10:30 AM EDT / 2019.06.18 1430 UTC
Wind: from the WSW (250 degrees) at 20 MPH (17 KT) (direction variable):0
Visibility: greater than 7 mile(s):0
Temperature: 73 F (23 C)
Dew Point: 48 F (9 C)
Relative Humidity: 40%
Pressure (altimeter): 29.97 in. Hg (1015 hPa)
ob: LESA 181430Z 25017KT 210V280 CAVOK 23/09 Q1015
cycle: 14

Station Type Date Time Source
LESA TAF 2019/06/18 12:29 UTC NOAA

TAF LESA 181100Z 1812/1912 23018KT CAVOK TX27/1816Z TN11/1905Z
TEMPO 1812/1820 22020G30KT
BECMG 1820/1822 23006KT PROB30
TEMPO 1815/1818 FEW045TCU PROB40
TEMPO 1904/1912 BKN014

Example: see airport list